Time;durP1;ratioP1;P1;durP2;ratioP2;P2;SDS_P1;SDS_P2;PMS_P1;PMS_P2;Temp;Humidity;BMP_temperature;BMP_pressure;BME280_temperature;BME280_humidity;BME280_pressure;Samples;Min_cycle;Max_cycle;Signal;HPM_P1;HPM_P2
2022/02/22 00:01:55;;;;;;;1.45;0.80;;;;;;;4.44;66.49;92335.84;2052091;70;20677;-68
2022/02/22 00:04:21;;;;;;;1.00;0.60;;;;;;;4.47;67.12;92348.66;2064340;69;20273;-73
2022/02/22 00:06:47;;;;;;;0.80;0.65;;;;;;;4.59;66.14;92352.38;2067528;69;20154;-70
2022/02/22 00:09:13;;;;;;;0.80;0.50;;;;;;;4.67;65.35;92348.72;2051750;69;20197;-69
2022/02/22 00:11:38;;;;;;;1.33;0.65;;;;;;;4.55;65.94;92352.06;2052239;69;20234;-69
2022/02/22 00:14:04;;;;;;;1.08;0.70;;;;;;;4.51;66.00;92360.09;2052064;70;20142;-69
2022/02/22 00:16:30;;;;;;;1.00;0.60;;;;;;;4.55;66.04;92356.91;2052177;70;20494;-69
2022/02/22 00:18:56;;;;;;;1.50;0.98;;;;;;;4.50;66.29;92366.28;2051946;70;20150;-69
2022/02/22 00:21:21;;;;;;;1.25;0.80;;;;;;;4.55;65.11;92379.94;2052137;70;20601;-71
2022/02/22 00:23:47;;;;;;;1.05;0.80;;;;;;;4.52;65.79;92361.56;2065044;69;20149;-72
2022/02/22 00:26:13;;;;;;;2.28;1.00;;;;;;;4.41;66.11;92366.97;2051804;70;20226;-71
2022/02/22 00:28:38;;;;;;;2.58;0.90;;;;;;;4.21;68.01;92369.63;2052150;69;20253;-74
2022/02/22 00:31:04;;;;;;;1.48;0.88;;;;;;;4.21;68.41;92364.06;2064832;69;20153;-69
2022/02/22 00:33:30;;;;;;;0.95;0.70;;;;;;;4.44;66.06;92376.94;2064874;69;20357;-70
2022/02/22 00:35:56;;;;;;;0.90;0.70;;;;;;;4.51;66.07;92379.63;2052255;70;20153;-68
2022/02/22 00:38:23;;;;;;;0.70;0.60;;;;;;;4.49;67.43;92381.50;2051930;69;20150;-69
2022/02/22 00:40:48;;;;;;;1.88;0.60;;;;;;;4.55;66.07;92382.00;2051950;69;20257;-70
2022/02/22 00:43:14;;;;;;;0.50;0.50;;;;;;;4.56;66.27;92397.41;2051838;70;20142;-68
2022/02/22 00:45:40;;;;;;;0.75;0.60;;;;;;;4.45;67.57;92403.50;2052059;69;20186;-69
2022/02/22 00:48:06;;;;;;;1.00;0.70;;;;;;;4.34;68.56;92399.19;2052045;69;20509;-68
2022/02/22 00:50:33;;;;;;;1.10;0.80;;;;;;;4.48;67.05;92393.97;2051960;70;20154;-68
2022/02/22 00:52:59;;;;;;;2.15;0.70;;;;;;;4.63;65.42;92393.78;2051656;69;20202;-71
2022/02/22 00:55:25;;;;;;;1.15;0.65;;;;;;;4.36;68.38;92404.94;2052109;70;20549;-70
2022/02/22 00:57:51;;;;;;;0.93;0.70;;;;;;;4.41;67.78;92408.78;2052064;70;20169;-69
2022/02/22 01:00:18;;;;;;;1.45;0.80;;;;;;;4.49;67.81;92415.72;2064946;69;20134;-69
2022/02/22 01:02:43;;;;;;;0.50;0.50;;;;;;;4.26;68.57;92429.19;2064460;69;20532;-70
2022/02/22 01:05:10;;;;;;;1.55;0.47;;;;;;;4.18;68.16;92423.72;2052083;70;20608;-70
2022/02/22 01:07:35;;;;;;;0.98;0.50;;;;;;;4.32;68.26;92432.47;2051939;70;20636;-69
2022/02/22 01:10:02;;;;;;;1.00;0.52;;;;;;;4.39;66.89;92422.53;2051799;69;20190;-69
2022/02/22 01:12:28;;;;;;;0.50;0.50;;;;;;;3.66;71.03;92423.75;2051966;70;20169;-69
2022/02/22 01:14:54;;;;;;;0.93;0.50;;;;;;;4.21;68.52;92425.34;2052114;70;20150;-72
2022/02/22 01:17:19;;;;;;;0.77;0.50;;;;;;;4.29;68.49;92420.41;2052103;70;20536;-69
2022/02/22 01:19:45;;;;;;;0.50;0.50;;;;;;;4.51;65.54;92429.81;2052156;69;20525;-69
2022/02/22 01:22:10;;;;;;;1.05;0.50;;;;;;;4.49;65.98;92426.09;2052097;70;20219;-68
2022/02/22 01:24:36;;;;;;;0.55;0.50;;;;;;;4.54;66.36;92422.34;2052120;70;20158;-70
2022/02/22 01:27:03;;;;;;;0.77;0.50;;;;;;;4.39;67.65;92437.19;2051707;69;20498;-70
2022/02/22 01:29:29;;;;;;;0.90;0.45;;;;;;;4.43;67.38;92434.72;2064777;69;20207;-69
2022/02/22 01:31:55;;;;;;;0.95;0.50;;;;;;;4.38;67.96;92444.09;2051854;70;20146;-70
2022/02/22 01:34:21;;;;;;;0.75;0.60;;;;;;;4.30;67.99;92435.09;2051990;70;20232;-71
2022/02/22 01:36:47;;;;;;;2.83;0.80;;;;;;;3.28;72.98;92416.53;2052026;69;20138;-71
2022/02/22 01:39:13;;;;;;;0.98;0.70;;;;;;;3.77;71.44;92425.31;2064795;69;20154;-71
2022/02/22 01:41:41;;;;;;;0.60;0.60;;;;;;;3.98;70.26;92410.97;2051856;70;20581;-69
2022/02/22 01:44:07;;;;;;;1.30;0.52;;;;;;;4.15;68.94;92413.72;2051862;69;20261;-71
2022/02/22 01:46:32;;;;;;;3.70;0.60;;;;;;;4.23;68.24;92411.59;2052109;70;20243;-70
2022/02/22 01:49:01;;;;;;;0.77;0.60;;;;;;;4.04;69.75;92423.34;2051931;70;20146;-69
2022/02/22 01:51:27;;;;;;;0.77;0.60;;;;;;;4.22;68.41;92426.84;2051850;70;20142;-69
2022/02/22 01:53:52;;;;;;;0.80;0.70;;;;;;;4.16;69.54;92425.59;2051937;70;20238;-70
2022/02/22 01:56:18;;;;;;;0.77;0.50;;;;;;;3.98;69.18;92422.09;2064899;69;20150;-69
2022/02/22 01:58:44;;;;;;;0.65;0.60;;;;;;;4.27;67.17;92422.31;2051916;70;20264;-69
2022/02/22 02:01:10;;;;;;;0.85;0.40;;;;;;;4.16;68.06;92428.41;2051815;69;20616;-70
2022/02/22 02:03:36;;;;;;;0.70;0.50;;;;;;;3.82;68.63;92439.00;2062134;69;20211;-71
2022/02/22 02:06:02;;;;;;;0.55;0.50;;;;;;;4.13;68.53;92438.66;2051906;69;20150;-72
2022/02/22 02:08:28;;;;;;;0.60;0.50;;;;;;;4.07;67.88;92424.22;2051898;70;20602;-72
2022/02/22 02:10:55;;;;;;;1.00;0.50;;;;;;;4.18;68.09;92418.16;2051802;70;20160;-72
2022/02/22 02:13:21;;;;;;;0.55;0.45;;;;;;;4.19;67.03;92436.34;2064520;69;20161;-69
2022/02/22 02:15:47;;;;;;;0.75;0.47;;;;;;;4.17;67.50;92446.59;2051969;70;20142;-69
2022/02/22 02:18:13;;;;;;;1.00;0.50;;;;;;;4.18;66.53;92446.03;2051935;70;20520;-69
2022/02/22 02:20:38;;;;;;;2.40;0.50;;;;;;;4.16;68.86;92442.31;2051856;69;20225;-69
2022/02/22 02:23:04;;;;;;;0.57;0.47;;;;;;;4.16;66.69;92440.28;2051430;69;20182;-70
2022/02/22 02:25:30;;;;;;;0.50;0.50;;;;;;;4.29;65.74;92453.13;2051935;70;20193;-70
2022/02/22 02:27:55;;;;;;;0.90;0.50;;;;;;;4.25;67.57;92450.03;2051928;70;20138;-69
2022/02/22 02:30:21;;;;;;;0.57;0.57;;;;;;;4.26;66.88;92477.31;2051647;70;20193;-69
2022/02/22 02:32:47;;;;;;;0.30;0.30;;;;;;;4.32;66.76;92474.28;2051544;70;20520;-69
2022/02/22 02:35:12;;;;;;;1.08;0.40;;;;;;;4.16;67.44;92464.63;2051507;70;20511;-70
2022/02/22 02:37:39;;;;;;;0.90;0.63;;;;;;;4.27;67.36;92462.06;2051818;70;20157;-75
2022/02/22 02:40:08;;;;;;;0.47;0.40;;;;;;;4.33;66.06;92459.03;2064611;69;20143;-72
2022/02/22 02:42:42;;;;;;;0.50;0.50;;;;;;;4.13;67.14;92460.22;2051933;70;20192;-74
2022/02/22 02:45:09;;;;;;;1.10;0.45;;;;;;;3.60;68.92;92461.50;2052247;70;20178;-70
2022/02/22 02:47:35;;;;;;;0.50;0.50;;;;;;;4.13;67.25;92452.59;2051814;69;20142;-73
2022/02/22 02:50:00;;;;;;;0.95;0.50;;;;;;;4.02;68.47;92467.75;2052252;70;20255;-70
2022/02/22 02:52:26;;;;;;;1.05;0.60;;;;;;;3.93;68.16;92478.81;2052369;70;20146;-70
2022/02/22 02:54:54;;;;;;;0.38;0.35;;;;;;;3.78;69.15;92482.47;2052374;70;20615;-70
2022/02/22 02:57:19;;;;;;;0.57;0.47;;;;;;;4.01;68.45;92485.75;2052022;70;20243;-73
2022/02/22 02:59:47;;;;;;;0.93;0.40;;;;;;;4.06;67.52;92476.41;2051957;70;20948;-70
2022/02/22 03:02:13;;;;;;;1.63;0.57;;;;;;;3.09;73.59;92480.31;2051945;70;20252;-70
2022/02/22 03:04:39;;;;;;;0.63;0.60;;;;;;;3.11;74.61;92486.03;2064919;69;20143;-72
2022/02/22 03:07:04;;;;;;;0.40;0.40;;;;;;;3.41;72.87;92485.06;2051963;70;20757;-70
2022/02/22 03:09:30;;;;;;;1.00;0.73;;;;;;;3.25;73.96;92492.81;2051616;69;20269;-69
2022/02/22 03:11:56;;;;;;;0.60;0.60;;;;;;;3.51;72.50;92499.81;2051932;70;20157;-70
2022/02/22 03:14:21;;;;;;;0.77;0.70;;;;;;;3.40;72.42;92505.84;2051854;70;20154;-70
2022/02/22 03:16:47;;;;;;;1.15;0.70;;;;;;;3.63;71.51;92505.66;2052147;70;20178;-71
2022/02/22 03:19:14;;;;;;;0.50;0.50;;;;;;;3.49;72.21;92510.03;2064880;69;20708;-70
2022/02/22 03:21:40;;;;;;;0.90;0.70;;;;;;;3.78;70.76;92521.47;2052282;70;20172;-70
2022/02/22 03:24:07;;;;;;;0.80;0.80;;;;;;;3.12;74.43;92526.47;2052129;70;20604;-70
2022/02/22 03:26:33;;;;;;;2.55;0.80;;;;;;;2.95;75.87;92538.25;2052245;69;20513;-70
2022/02/22 03:28:59;;;;;;;0.63;0.60;;;;;;;3.44;73.73;92544.41;2052284;69;20145;-72
2022/02/22 03:31:29;;;;;;;0.70;0.70;;;;;;;3.60;72.53;92539.44;2052522;70;20221;-73
2022/02/22 03:33:55;;;;;;;0.50;0.50;;;;;;;3.77;71.47;92548.56;2052396;69;20147;-71
2022/02/22 03:36:21;;;;;;;0.98;0.60;;;;;;;3.66;71.78;92549.03;2052401;70;20142;-72
2022/02/22 03:38:48;;;;;;;0.85;0.50;;;;;;;3.71;71.69;92536.94;2052311;70;20178;-70
2022/02/22 03:41:14;;;;;;;0.77;0.50;;;;;;;3.44;71.97;92522.88;2052382;69;20532;-69
2022/02/22 03:43:40;;;;;;;0.50;0.50;;;;;;;2.95;75.26;92534.72;2052485;70;20158;-70
2022/02/22 03:46:06;;;;;;;1.33;0.80;;;;;;;3.33;74.96;92539.28;2052406;70;20502;-71
2022/02/22 03:48:31;;;;;;;3.80;0.90;;;;;;;3.58;72.97;92539.28;2052361;70;20223;-70
2022/02/22 03:50:57;;;;;;;0.65;0.60;;;;;;;3.69;71.45;92545.13;2052214;70;20154;-71
2022/02/22 03:53:22;;;;;;;0.93;0.65;;;;;;;3.72;72.08;92540.47;2052157;70;20173;-74
2022/02/22 03:55:48;;;;;;;1.20;0.90;;;;;;;3.67;72.83;92555.38;2052348;70;20153;-72
2022/02/22 03:58:17;;;;;;;2.90;0.82;;;;;;;3.81;71.50;92567.66;2052501;70;20162;-70
2022/02/22 04:00:43;;;;;;;0.77;0.70;;;;;;;3.81;71.09;92570.47;2065376;69;20569;-71
2022/02/22 04:03:09;;;;;;;0.80;0.60;;;;;;;3.90;70.23;92580.22;2052448;70;20154;-72
2022/02/22 04:05:34;;;;;;;1.25;0.60;;;;;;;3.63;70.35;92591.22;2052312;69;20142;-70
2022/02/22 04:08:00;;;;;;;0.70;0.60;;;;;;;3.64;71.47;92609.38;2052479;70;20146;-71
2022/02/22 04:10:26;;;;;;;0.55;0.45;;;;;;;3.61;71.04;92619.59;2052280;70;20234;-72
2022/02/22 04:12:51;;;;;;;0.45;0.45;;;;;;;3.79;70.25;92628.75;2052270;70;20177;-72
2022/02/22 04:15:17;;;;;;;0.57;0.50;;;;;;;3.59;71.96;92644.50;2052340;70;20158;-74
2022/02/22 04:17:43;;;;;;;1.00;0.60;;;;;;;3.76;70.87;92630.63;2052439;70;20162;-71
2022/02/22 04:20:10;;;;;;;1.00;0.70;;;;;;;3.41;72.70;92623.47;2052531;69;20226;-71
2022/02/22 04:22:36;;;;;;;0.50;0.50;;;;;;;3.79;69.57;92606.47;2052159;69;20150;-75
2022/02/22 04:25:04;;;;;;;2.70;0.65;;;;;;;3.27;73.85;92595.91;2052372;70;20230;-75
2022/02/22 04:27:30;;;;;;;4.45;2.95;;;;;;;3.70;70.97;92598.75;2065251;69;20142;-74
2022/02/22 04:29:56;;;;;;;3.97;2.42;;;;;;;3.64;71.76;92601.03;2065247;69;20208;-73
2022/02/22 04:32:21;;;;;;;2.80;2.15;;;;;;;3.49;72.84;92599.84;2052459;70;20687;-71
2022/02/22 04:34:49;;;;;;;2.13;1.13;;;;;;;3.43;73.08;92604.88;2052274;69;20551;-73
2022/02/22 04:37:16;;;;;;;0.68;0.68;;;;;;;3.61;72.22;92602.91;2052318;69;20196;-71
2022/02/22 04:39:47;;;;;;;0.85;0.50;;;;;;;3.53;72.54;92616.16;2052136;70;20168;-70
2022/02/22 04:42:13;;;;;;;1.75;0.52;;;;;;;3.42;72.92;92616.59;2052362;70;20615;-74
2022/02/22 04:44:39;;;;;;;0.40;0.40;;;;;;;3.67;70.90;92622.91;2052361;69;20199;-71
2022/02/22 04:47:06;;;;;;;0.75;0.60;;;;;;;3.82;69.66;92622.78;2052226;70;20158;-71
2022/02/22 04:49:32;;;;;;;1.23;0.60;;;;;;;3.65;70.33;92624.78;2052263;70;20229;-69
2022/02/22 04:51:58;;;;;;;1.55;0.70;;;;;;;3.58;71.93;92639.50;2052311;70;20600;-71
2022/02/22 04:54:24;;;;;;;0.73;0.60;;;;;;;3.80;70.80;92644.91;2052137;70;20153;-71
2022/02/22 04:56:50;;;;;;;0.57;0.57;;;;;;;3.65;71.31;92650.56;2052246;69;20150;-70
2022/02/22 04:59:16;;;;;;;0.60;0.50;;;;;;;3.74;71.11;92649.22;2052304;69;20609;-70
2022/02/22 05:01:41;;;;;;;0.80;0.60;;;;;;;3.66;71.97;92668.75;2065174;69;20165;-71
2022/02/22 05:04:07;;;;;;;0.95;0.60;;;;;;;3.63;71.82;92671.94;2052231;69;20138;-70
2022/02/22 05:06:32;;;;;;;1.60;0.70;;;;;;;3.77;70.98;92681.50;2052027;69;20178;-72
2022/02/22 05:08:58;;;;;;;0.75;0.60;;;;;;;3.66;71.41;92688.22;2052001;69;20597;-70
2022/02/22 05:11:24;;;;;;;2.33;0.98;;;;;;;3.69;71.20;92689.91;2052231;70;20146;-69
2022/02/22 05:13:49;;;;;;;5.65;1.85;;;;;;;3.66;70.57;92687.50;2052121;69;20150;-70
2022/02/22 05:16:16;;;;;;;2.45;1.60;;;;;;;3.35;72.66;92692.53;2065056;69;20150;-70
2022/02/22 05:18:42;;;;;;;2.15;1.30;;;;;;;3.54;72.54;92692.78;2065002;69;20169;-71
2022/02/22 05:21:07;;;;;;;1.17;1.00;;;;;;;3.59;72.82;92708.53;2052158;70;20147;-71
2022/02/22 05:23:35;;;;;;;1.65;1.00;;;;;;;3.72;70.95;92733.31;2052070;70;20704;-70
2022/02/22 05:26:06;;;;;;;1.25;0.90;;;;;;;3.72;71.29;92738.16;2052296;70;20584;-71
2022/02/22 05:28:32;;;;;;;1.05;0.90;;;;;;;3.64;71.40;92715.91;2052140;70;20162;-71
2022/02/22 05:30:58;;;;;;;1.85;1.20;;;;;;;3.72;70.75;92733.31;2052102;70;20146;-74
2022/02/22 05:33:24;;;;;;;4.97;0.98;;;;;;;3.88;69.91;92738.78;2052152;70;20165;-71
2022/02/22 05:35:52;;;;;;;1.63;1.10;;;;;;;3.62;70.57;92746.38;2052216;70;20252;-71
2022/02/22 05:38:19;;;;;;;3.17;1.20;;;;;;;3.41;72.48;92754.25;2052073;69;20150;-71
2022/02/22 05:40:45;;;;;;;41.53;17.60;;;;;;;3.59;69.92;92747.50;2052090;69;20212;-71
2022/02/22 05:43:11;;;;;;;695.83;217.85;;;;;;;3.72;69.25;92732.59;2052075;69;20552;-71
2022/02/22 05:45:37;;;;;;;22.15;7.75;;;;;;;3.55;70.75;92717.25;2052061;70;20196;-70
2022/02/22 05:48:03;;;;;;;7.43;3.58;;;;;;;3.36;72.08;92713.47;2052099;69;20138;-71
2022/02/22 05:50:29;;;;;;;8.65;3.95;;;;;;;3.56;70.11;92704.06;2052057;69;20539;-70
2022/02/22 05:52:57;;;;;;;17.40;10.68;;;;;;;3.60;70.95;92707.22;2051948;70;20519;-72
2022/02/22 05:55:27;;;;;;;6.03;4.13;;;;;;;3.53;71.79;92710.78;2052096;70;20150;-72
2022/02/22 05:57:53;;;;;;;4.45;2.70;;;;;;;3.66;70.24;92709.78;2052052;69;20143;-71
2022/02/22 06:00:19;;;;;;;4.35;2.00;;;;;;;3.62;70.55;92699.03;2052099;70;20146;-71
2022/02/22 06:02:45;;;;;;;2.88;1.35;;;;;;;3.77;68.05;92698.94;2052099;70;20235;-71
2022/02/22 06:05:11;;;;;;;3.05;1.30;;;;;;;3.75;68.48;92717.50;2052102;70;20593;-71
2022/02/22 06:07:37;;;;;;;1.27;1.15;;;;;;;3.62;70.15;92715.00;2052071;70;20161;-71
2022/02/22 06:10:03;;;;;;;1.65;1.10;;;;;;;3.56;71.36;92715.94;2057717;69;20150;-75
2022/02/22 06:12:29;;;;;;;1.40;0.90;;;;;;;3.51;71.37;92710.59;2048663;70;20232;-71
2022/02/22 06:14:55;;;;;;;6.47;4.75;;;;;;;3.27;72.10;92718.31;2048777;70;20162;-72
2022/02/22 06:17:21;;;;;;;4.53;2.80;;;;;;;3.37;72.35;92723.28;2048997;70;20634;-75
2022/02/22 06:19:47;;;;;;;3.17;1.40;;;;;;;3.50;70.50;92721.00;2049373;70;20163;-71
2022/02/22 06:22:13;;;;;;;1.50;0.90;;;;;;;3.46;70.33;92734.56;2049332;70;20148;-72
2022/02/22 06:24:38;;;;;;;1.65;1.08;;;;;;;3.53;70.63;92733.78;2049177;70;20135;-72
2022/02/22 06:27:04;;;;;;;1.50;1.10;;;;;;;3.20;72.52;92746.91;2049260;70;20246;-74
2022/02/22 06:29:30;;;;;;;5.20;2.38;;;;;;;3.06;74.40;92754.00;2048609;70;20150;-73
2022/02/22 06:31:56;;;;;;;6.13;2.95;;;;;;;3.30;72.16;92755.44;2048638;70;20165;-73
2022/02/22 06:34:22;;;;;;;6.45;2.90;;;;;;;3.49;71.16;92766.09;2049202;70;20155;-71
2022/02/22 06:36:47;;;;;;;7.20;4.00;;;;;;;3.40;70.45;92766.69;2049171;70;20228;-70
2022/02/22 06:39:13;;;;;;;5.95;3.45;;;;;;;3.11;71.88;92774.56;2049105;70;20146;-71
2022/02/22 06:41:39;;;;;;;4.35;3.30;;;;;;;3.39;71.60;92773.53;2049219;70;20211;-72
2022/02/22 06:44:05;;;;;;;6.03;4.20;;;;;;;3.52;70.48;92790.00;2049208;70;20157;-71
2022/02/22 06:46:31;;;;;;;7.70;4.93;;;;;;;3.56;71.32;92804.28;2049356;70;20139;-71
2022/02/22 06:48:57;;;;;;;5.72;3.88;;;;;;;3.42;71.97;92803.03;2049175;70;20213;-73
2022/02/22 06:51:23;;;;;;;5.30;3.13;;;;;;;3.37;71.24;92817.91;2049144;70;20154;-74
2022/02/22 06:53:48;;;;;;;3.60;2.38;;;;;;;3.19;72.57;92825.38;2049062;70;20516;-72
2022/02/22 06:56:14;;;;;;;7.28;3.72;;;;;;;3.20;72.49;92826.84;2049333;70;20158;-72
2022/02/22 06:58:40;;;;;;;6.88;3.35;;;;;;;3.36;72.77;92835.91;2049185;70;20146;-75
2022/02/22 07:01:05;;;;;;;4.35;3.30;;;;;;;3.44;72.50;92837.38;2049227;70;20152;-72
2022/02/22 07:03:31;;;;;;;4.78;3.20;;;;;;;3.54;72.80;92843.81;2049307;70;20173;-73
2022/02/22 07:05:57;;;;;;;5.00;3.17;;;;;;;3.62;71.95;92852.16;2049198;70;20150;-71
2022/02/22 07:08:22;;;;;;;3.92;2.90;;;;;;;3.73;71.80;92864.94;2049004;70;20139;-72
2022/02/22 07:10:49;;;;;;;6.40;2.85;;;;;;;3.74;72.16;92872.72;2051824;70;20151;-71
2022/02/22 07:13:15;;;;;;;4.63;1.95;;;;;;;3.91;71.04;92871.34;2052554;70;20150;-71
2022/02/22 07:15:40;;;;;;;3.50;2.30;;;;;;;3.80;71.61;92889.97;2052365;70;20150;-72
2022/02/22 07:18:09;;;;;;;5.70;2.80;;;;;;;3.90;71.82;92894.94;2065212;69;20656;-72
2022/02/22 07:20:36;;;;;;;3.38;2.40;;;;;;;4.05;70.76;92894.88;2052375;70;20146;-72
2022/02/22 07:23:02;;;;;;;3.45;2.03;;;;;;;4.16;67.94;92900.00;2052413;69;20158;-71
2022/02/22 07:25:30;;;;;;;3.83;2.22;;;;;;;4.17;70.05;92903.53;2052420;70;20134;-71
2022/02/22 07:27:57;;;;;;;3.42;2.33;;;;;;;4.10;71.20;92924.56;2052366;70;20186;-73
2022/02/22 07:30:23;;;;;;;6.47;2.50;;;;;;;4.16;71.62;92918.78;2052290;69;20191;-74
2022/02/22 07:32:54;;;;;;;3.33;2.40;;;;;;;4.31;69.56;92933.41;2052309;69;20150;-73
2022/02/22 07:35:20;;;;;;;3.55;1.77;;;;;;;4.29;70.46;92954.78;2052407;70;20139;-72
2022/02/22 07:37:46;;;;;;;4.38;1.80;;;;;;;4.38;69.51;92956.97;2052232;70;20154;-72
2022/02/22 07:40:15;;;;;;;3.50;1.60;;;;;;;3.79;71.02;92969.22;2052458;70;20197;-74
2022/02/22 07:42:41;;;;;;;2.25;1.63;;;;;;;4.02;71.29;92983.09;2052331;69;20176;-72
2022/02/22 07:45:08;;;;;;;4.85;1.90;;;;;;;3.90;71.17;92981.28;2052311;69;20517;-72
2022/02/22 07:47:34;;;;;;;2.45;1.52;;;;;;;4.26;70.39;92994.91;2052506;69;20131;-71
2022/02/22 07:50:00;;;;;;;3.08;1.73;;;;;;;4.30;69.35;92989.69;2052416;70;20149;-71
2022/02/22 07:52:27;;;;;;;2.42;1.50;;;;;;;4.41;67.26;93006.00;2052317;70;20262;-72
2022/02/22 07:54:52;;;;;;;5.25;2.55;;;;;;;4.53;67.28;93006.31;2065247;69;20134;-71
2022/02/22 07:57:18;;;;;;;2.60;1.90;;;;;;;4.30;67.94;93003.63;2052295;70;20538;-74
2022/02/22 07:59:44;;;;;;;3.50;2.00;;;;;;;4.35;69.26;93008.25;2052298;70;20539;-72
2022/02/22 08:02:09;;;;;;;3.83;2.13;;;;;;;4.70;68.61;93003.66;2052229;70;20236;-73
2022/02/22 08:04:35;;;;;;;3.45;2.00;;;;;;;4.76;68.76;92997.84;2052377;70;20134;-73
2022/02/22 08:07:01;;;;;;;2.63;1.83;;;;;;;4.88;66.60;92995.38;2065233;69;20599;-73
2022/02/22 08:09:26;;;;;;;2.63;1.70;;;;;;;4.96;66.20;92973.75;2052149;69;20220;-72
2022/02/22 08:11:52;;;;;;;2.35;1.60;;;;;;;4.97;63.53;92978.75;2065243;69;20516;-73
2022/02/22 08:14:18;;;;;;;1.60;1.30;;;;;;;5.11;66.27;92987.59;2052270;70;20174;-73
2022/02/22 08:16:44;;;;;;;4.50;1.70;;;;;;;5.15;66.43;93004.69;2052319;70;20237;-71
2022/02/22 08:19:10;;;;;;;1.98;1.40;;;;;;;5.19;68.33;92990.34;2052282;70;20150;-71
2022/02/22 08:21:36;;;;;;;3.30;1.50;;;;;;;5.30;68.98;93010.16;2052241;70;20678;-70
2022/02/22 08:24:02;;;;;;;3.30;2.67;;;;;;;5.04;67.31;93011.47;2052138;70;20170;-70
2022/02/22 08:26:28;;;;;;;6.35;3.20;;;;;;;5.43;65.93;93011.19;2051827;70;20529;-70
2022/02/22 08:28:53;;;;;;;6.05;2.70;;;;;;;5.06;66.84;93002.50;2052112;70;20596;-72
2022/02/22 08:31:19;;;;;;;4.85;2.95;;;;;;;4.76;67.34;92998.59;2052362;70;20508;-71
2022/02/22 08:33:44;;;;;;;3.70;2.30;;;;;;;5.08;66.37;92983.88;2052295;70;20240;-71
2022/02/22 08:36:11;;;;;;;5.00;2.58;;;;;;;5.56;64.26;93002.53;2052262;70;20150;-71
2022/02/22 08:38:38;;;;;;;5.00;3.45;;;;;;;5.73;65.54;93008.16;2052194;69;20618;-71
2022/02/22 08:41:05;;;;;;;4.20;1.88;;;;;;;5.96;64.31;93012.81;2052171;69;20540;-71
2022/02/22 08:43:30;;;;;;;3.75;2.10;;;;;;;6.20;63.08;93019.66;2052341;70;20150;-71
2022/02/22 08:45:56;;;;;;;2.85;2.13;;;;;;;6.38;62.37;93021.16;2052316;70;20148;-71
2022/02/22 08:48:22;;;;;;;3.55;2.08;;;;;;;6.31;62.49;93033.88;2052457;70;20517;-71
2022/02/22 08:50:47;;;;;;;5.93;3.33;;;;;;;5.97;62.54;93037.41;2052307;70;20160;-73
2022/02/22 08:53:14;;;;;;;4.22;3.20;;;;;;;6.15;63.01;93034.63;2052064;70;20146;-72
2022/02/22 08:55:40;;;;;;;6.82;3.40;;;;;;;6.24;62.08;93048.69;2052186;70;20139;-72
2022/02/22 08:58:05;;;;;;;3.17;2.22;;;;;;;5.44;64.09;93049.69;2052182;70;20593;-73
2022/02/22 09:00:31;;;;;;;6.00;1.88;;;;;;;5.15;63.89;93060.50;2052200;69;20221;-72
2022/02/22 09:03:00;;;;;;;1.90;1.30;;;;;;;5.19;63.81;93074.81;2052166;70;20166;-71
2022/02/22 09:05:30;;;;;;;2.22;1.27;;;;;;;5.63;62.13;93062.41;2052290;70;20585;-71
2022/02/22 09:07:56;;;;;;;3.55;1.70;;;;;;;5.68;61.21;93056.63;2052110;70;20157;-74
2022/02/22 09:10:23;;;;;;;2.30;1.50;;;;;;;5.96;61.71;93057.53;2052097;70;20176;-73
2022/02/22 09:12:49;;;;;;;3.17;1.85;;;;;;;6.49;61.14;93059.78;2052163;70;20587;-72
2022/02/22 09:15:18;;;;;;;4.88;2.20;;;;;;;6.61;61.60;93071.25;2052193;70;20211;-72
2022/02/22 09:17:45;;;;;;;3.80;2.40;;;;;;;6.60;60.37;93076.09;2052277;70;20155;-72
2022/02/22 09:20:14;;;;;;;5.88;2.53;;;;;;;6.53;59.20;93076.91;2052271;70;20161;-72
2022/02/22 09:22:39;;;;;;;2.70;2.03;;;;;;;6.63;58.39;93079.78;2052135;70;20146;-72
2022/02/22 09:25:08;;;;;;;3.40;1.58;;;;;;;6.74;59.13;93101.69;2052254;70;20607;-73
2022/02/22 09:27:33;;;;;;;2.00;1.30;;;;;;;6.60;58.66;93106.88;2052243;70;20237;-72
2022/02/22 09:29:59;;;;;;;1.45;1.08;;;;;;;6.25;58.60;93110.94;2052209;70;20593;-72
2022/02/22 09:32:25;;;;;;;1.75;1.20;;;;;;;6.25;58.66;93122.88;2052057;70;20146;-73
2022/02/22 09:34:52;;;;;;;2.75;1.10;;;;;;;5.69;60.00;93127.19;2052100;70;20150;-72
2022/02/22 09:37:17;;;;;;;2.53;1.10;;;;;;;5.49;60.45;93135.31;2052235;70;20157;-73
2022/02/22 09:39:43;;;;;;;1.73;1.00;;;;;;;5.27;60.11;93145.31;2051972;70;20143;-71
2022/02/22 09:42:09;;;;;;;1.92;1.10;;;;;;;5.07;61.56;93158.22;2052183;70;20498;-74
2022/02/22 09:44:39;;;;;;;2.47;1.00;;;;;;;5.33;60.73;93173.75;2052118;69;20166;-72
2022/02/22 09:47:06;;;;;;;2.20;1.10;;;;;;;5.30;60.75;93185.28;2052194;70;20609;-74
2022/02/22 09:49:32;;;;;;;1.67;1.35;;;;;;;5.49;60.53;93190.41;2052099;69;20170;-74
2022/02/22 09:51:58;;;;;;;1.58;0.98;;;;;;;5.35;60.21;93189.94;2052198;70;20170;-73
2022/02/22 09:54:28;;;;;;;3.03;1.20;;;;;;;5.66;59.29;93195.38;2052464;69;20232;-73
2022/02/22 09:56:56;;;;;;;1.48;0.90;;;;;;;5.58;59.49;93187.03;2052584;70;20154;-72
2022/02/22 09:59:22;;;;;;;2.38;1.00;;;;;;;6.02;58.74;93183.81;2052638;70;20446;-72
2022/02/22 10:01:51;;;;;;;2.03;0.88;;;;;;;6.26;58.53;93179.53;2052552;70;20150;-72
2022/02/22 10:04:17;;;;;;;1.20;0.65;;;;;;;6.83;57.36;93159.78;2052599;70;20154;-72
2022/02/22 10:06:43;;;;;;;0.85;0.43;;;;;;;7.25;56.82;93175.75;2052614;70;20194;-72
2022/02/22 10:09:09;;;;;;;0.73;0.50;;;;;;;7.42;54.56;93172.16;2052551;70;20509;-72
2022/02/22 10:11:45;;;;;;;1.00;0.57;;;;;;;7.42;52.65;93160.22;2052523;70;20152;-73
2022/02/22 10:14:22;;;;;;;1.60;0.90;;;;;;;6.44;55.04;93166.31;2052642;70;20226;-72
2022/02/22 10:16:48;;;;;;;4.25;1.00;;;;;;;6.32;56.66;93164.00;2052525;70;20142;-72
2022/02/22 10:19:15;;;;;;;1.20;0.85;;;;;;;7.23;54.68;93180.44;2065616;69;20200;-72
2022/02/22 10:21:43;;;;;;;2.42;1.30;;;;;;;6.53;54.50;93182.47;2052502;70;20158;-72
2022/02/22 10:24:11;;;;;;;3.15;1.30;;;;;;;6.23;55.11;93194.63;2052372;69;20130;-72
2022/02/22 10:26:36;;;;;;;8.38;1.10;;;;;;;6.27;55.92;93197.78;2052500;70;20197;-72
2022/02/22 10:29:24;;;;;;;4.45;1.40;;;;;;;5.93;57.55;93215.16;2052614;70;20209;-72
2022/02/22 10:31:50;;;;;;;4.70;1.50;;;;;;;5.99;58.70;93226.88;2052508;70;20157;-73
2022/02/22 10:34:15;;;;;;;2.13;1.30;;;;;;;5.84;59.54;93220.03;2052572;70;20158;-73
2022/02/22 10:36:47;;;;;;;2.63;1.35;;;;;;;6.28;58.07;93244.75;2052658;69;20143;-72
2022/02/22 10:39:18;;;;;;;2.13;1.30;;;;;;;6.61;56.92;93253.81;2052429;70;20152;-73
2022/02/22 10:41:46;;;;;;;1.08;0.80;;;;;;;6.08;57.06;93260.53;2052600;70;20259;-73
2022/02/22 10:44:23;;;;;;;1.48;0.90;;;;;;;6.60;55.83;93279.59;2052477;70;20569;-74
2022/02/22 10:46:49;;;;;;;1.63;0.80;;;;;;;6.40;55.70;93284.19;2052507;70;20233;-73
2022/02/22 10:49:19;;;;;;;0.95;0.60;;;;;;;6.81;53.97;93291.16;2052502;69;20146;-72
2022/02/22 10:51:48;;;;;;;2.00;0.73;;;;;;;7.03;54.12;93300.66;2052485;70;20181;-72
2022/02/22 10:54:20;;;;;;;2.05;0.65;;;;;;;7.78;53.04;93299.69;2052323;70;20170;-72
2022/02/22 10:56:47;;;;;;;0.60;0.50;;;;;;;7.98;52.68;93283.78;2052491;70;20146;-74
2022/02/22 10:59:13;;;;;;;0.70;0.52;;;;;;;7.64;51.66;93269.22;2052472;69;20146;-71
2022/02/22 11:01:38;;;;;;;1.15;0.60;;;;;;;8.52;50.91;93258.53;2052391;70;20158;-72
2022/02/22 11:04:05;;;;;;;3.08;2.10;;;;;;;9.39;49.42;93267.94;2052412;69;20219;-70
2022/02/22 11:06:31;;;;;;;6.80;2.72;;;;;;;8.33;51.20;93254.28;2052429;70;20146;-71
2022/02/22 11:08:58;;;;;;;3.60;1.10;;;;;;;9.26;49.34;93264.81;2052329;70;20149;-70
2022/02/22 11:11:38;;;;;;;2.42;0.85;;;;;;;10.72;48.85;93262.56;2052347;70;20231;-70
2022/02/22 11:14:21;;;;;;;0.77;0.60;;;;;;;10.84;45.60;93246.53;2065562;69;20174;-71
2022/02/22 11:16:49;;;;;;;;;;;;;;;10.95;44.51;93226.16;2052710;70;20620;-75
2022/02/22 11:19:20;;;;;;;0.90;0.60;;;;;;;10.95;42.36;93214.91;2052403;70;20130;-71
2022/02/22 11:21:51;;;;;;;2.20;0.93;;;;;;;12.03;40.42;93224.78;2052355;70;20170;-72
2022/02/22 11:24:21;;;;;;;1.42;1.00;;;;;;;10.84;42.87;93218.34;2052327;70;20142;-71
2022/02/22 11:26:49;;;;;;;1.45;0.80;;;;;;;10.63;43.51;93219.06;2052512;70;20146;-71
2022/02/22 11:29:15;;;;;;;1.33;0.93;;;;;;;12.84;39.98;93223.44;2052401;70;20150;-71
2022/02/22 11:31:42;;;;;;;1.55;0.98;;;;;;;12.86;39.58;93226.38;2065321;69;20520;-71
2022/02/22 11:34:09;;;;;;;1.83;0.73;;;;;;;14.94;38.62;93224.06;2052360;70;20142;-73
2022/02/22 11:36:38;;;;;;;1.23;0.80;;;;;;;15.59;36.81;93223.09;2052377;70;20154;-71
2022/02/22 11:39:06;;;;;;;2.92;1.08;;;;;;;17.83;34.41;93218.59;2052220;69;20589;-72